GEU weather

Glendale Municipal Airport
Glendale, Arizona, United States

Public forecast

Using degrees Fahrenheit for public forecast. Weather courtesy of forecast.io.

Current aviation weather report (METAR) for Glendale Municipal Airport

Report is more than 2 hours old.

Retrieved 2019/12/11 02:58 UTC (3 hours ago):

KGEU 110258Z 00000KT 10SM BKN220 13/08 A3022 RMK LAST

Closest aviation forecast (TAF) to Glendale Municipal Airport

Closest forecast is Luke Air Force Base, 4.4 nm (8.2 km) W. Retrieved 2019-12-11 04:12 UTC (2 hours ago):

TAF KLUF 110400Z 1104/1210 VRB06KT 9999 FEW250 QNH3009INS BECMG 1115/1116 VRB06KT 9999 SCT200 QNH3019INS BECMG 1119/1120 VRB06KT 9999 SKC QNH3013INS TX19/1123Z TN08/1112Z